Overview Statistics Trail Chart Weather Telemetry Raw packets
 

This is the latest recevied weather packets stored in our database for station/object KE5QKR. If no packets are shown the sender has not sent any weather packets the latest 10 day(s).

<< 80 81 82 83 84 85 86 >>
Time Temp. Humidity Pressure Rain* Wind** Luminosity Snow
1777389358 27.78° C 76% 1016.7 hPa 0 mm - 606 W/m² -
1777389056 27.78° C 76% 1016.9 hPa 0 mm - 584 W/m² -
1777388753 27.78° C 77% 1016.7 hPa 0 mm - 577 W/m² -
1777388450 27.22° C 79% 1016.8 hPa 0 mm - 410 W/m² -
1777388149 27.22° C 79% 1016.8 hPa 0 mm - 571 W/m² -
1777387845 27.78° C 79% 1016.9 hPa 0 mm - 575 W/m² -
1777387543 27.22° C 81% 1017.2 hPa 0 mm - 539 W/m² -
1777387238 26.11° C 84% 1016.9 hPa 0 mm - 537 W/m² -
1777386933 25.56° C 86% 1017 hPa 0 mm - 482 W/m² -
1777386631 26.11° C 86% 1017 hPa 0 mm - 127 W/m² -
1777386327 26.11° C 85% 1017.2 hPa 0 mm - 462 W/m² -
1777386026 26.11° C 85% 1017.2 hPa 0 mm - 129 W/m² -
1777385721 26.67° C 85% 1017 hPa 0 mm - 413 W/m² -
1777385419 26.11° C 87% 1017 hPa 0 mm - 291 W/m² -
1777385115 26.11° C 86% 1017.1 hPa 0 mm - 165 W/m² -
1777384811 25.56° C 88% 1017.1 hPa 0 mm - 191 W/m² -
1777384508 25.56° C 90% 1016.8 hPa 0 mm - 418 W/m² -
1777384203 25.56° C 90% 1016.8 hPa 0 mm - 239 W/m² -
1777383899 25° C 92% 1016.8 hPa 0 mm - 418 W/m² -
1777383595 23.89° C 96% 1016.9 hPa 0 mm - 331 W/m² -
1777383292 23.89° C 98% 1017 hPa 0 mm - 336 W/m² -
1777382988 23.89° C 99% 1016.5 hPa 0 mm - 300 W/m² -
1777382684 23.89° C 99% 1016.8 hPa 0 mm - 222 W/m² -
1777382380 23.33° C 99% 1016.9 hPa 0 mm - 130 W/m² -
1777382076 23.33° C 99% 1016.9 hPa 0 mm - 198 W/m² -

* Rain latest hour (hover to see other rain measurements)
** Current wind speed in m/s (hover to see current wind gust speed)